createdAt,value
2022-11-02T17:32:45.154Z,70.44
2022-11-02T17:35:51.513Z,67.84
2022-11-02T17:38:55.300Z,66.79
2022-11-02T17:42:31.638Z,66.39
2022-11-02T17:45:37.376Z,66.99
2022-11-02T17:48:42.437Z,65.31
2022-11-02T17:51:46.107Z,66.84
2022-11-02T17:54:49.701Z,67.13
2022-11-02T17:57:54.172Z,66.47
2022-11-02T18:00:57.949Z,65.76
2022-11-02T18:04:03.110Z,64.87
2022-11-02T18:07:06.748Z,65.06
2022-11-02T18:10:10.933Z,66.18
2022-11-02T18:13:16.526Z,66.35
2022-11-02T18:16:20.116Z,65.04
2022-11-02T18:19:25.082Z,64.92
2022-11-02T18:22:28.655Z,64.82
2022-11-02T18:25:32.493Z,64.83
2022-11-02T18:28:36.361Z,64.82
2022-11-02T18:31:43.010Z,64.18
2022-11-02T18:34:48.027Z,65.49
2022-11-02T18:37:52.222Z,64.89
2022-11-02T18:40:55.816Z,64.26
2022-11-02T18:44:05.551Z,64.65
2022-11-02T18:47:11.316Z,65.31
2022-11-02T18:50:16.347Z,65.65
2022-11-02T18:53:19.939Z,64.79
2022-11-02T18:56:23.605Z,66.67
2022-11-02T18:59:27.184Z,64.46
2022-11-02T19:02:30.998Z,66.28
2022-11-02T19:05:53.421Z,66.83
2022-11-02T19:09:14.325Z,66.49
2022-11-02T19:12:20.684Z,66.16
2022-11-02T19:15:24.243Z,66.82
2022-11-02T19:18:27.811Z,67.27
2022-11-02T19:21:32.703Z,67.08
2022-11-02T19:24:36.263Z,68.79
2022-11-02T19:27:39.848Z,71.03
2022-11-02T19:30:43.476Z,72.17
2022-11-02T19:33:47.051Z,71.93
2022-11-02T19:36:51.990Z,72.41
2022-11-02T19:39:55.601Z,72.21
2022-11-02T19:42:59.129Z,72.34
2022-11-02T19:46:03.317Z,72.28
2022-11-02T19:49:06.862Z,73.12
2022-11-02T19:52:11.751Z,74.62
2022-11-02T19:55:15.396Z,74.46
2022-11-02T19:58:18.964Z,75.50
2022-11-02T20:01:23.919Z,74.63
2022-11-02T20:04:27.731Z,74.34
2022-11-02T20:07:32.678Z,75.96
2022-11-02T20:10:36.330Z,75.04
2022-11-02T20:13:41.655Z,74.71
2022-11-02T20:16:58.317Z,74.83
2022-11-02T20:20:02.702Z,74.82
2022-11-02T20:23:07.675Z,75.07
2022-11-02T20:26:13.995Z,73.96
2022-11-02T20:29:18.513Z,73.21
2022-11-02T20:32:23.604Z,74.67
2022-11-02T20:35:27.356Z,75.24
2022-11-02T20:38:32.827Z,76.35
2022-11-02T20:41:36.352Z,76.20
2022-11-02T20:44:40.026Z,76.83
2022-11-02T20:47:43.577Z,74.75
2022-11-02T20:50:47.246Z,75.40
2022-11-02T20:53:52.831Z,76.57
2022-11-02T20:56:56.911Z,77.12
2022-11-02T21:00:00.529Z,78.16
2022-11-02T21:03:04.307Z,77.42
2022-11-02T21:06:08.511Z,77.09
2022-11-02T21:09:13.413Z,77.11
2022-11-02T21:12:34.663Z,77.57
2022-11-02T21:15:38.211Z,78.57
2022-11-02T21:18:42.252Z,78.43
2022-11-02T21:21:46.033Z,78.07
2022-11-02T21:24:50.934Z,77.16
2022-11-02T21:27:55.540Z,75.46
2022-11-02T21:31:03.383Z,74.64
2022-11-02T21:34:07.143Z,76.44
2022-11-02T21:37:10.752Z,76.36
2022-11-02T21:40:16.090Z,76.95
2022-11-02T21:43:20.329Z,76.08
2022-11-02T21:46:25.757Z,76.31
2022-11-02T22:57:17.670Z,82.63
2022-11-02T23:00:22.424Z,80.09
2022-11-02T23:03:26.706Z,77.40
2022-11-02T23:06:30.910Z,78.44
2022-11-02T23:09:34.404Z,77.20
2022-11-02T23:12:38.289Z,77.25
